Time;durP1;ratioP1;P1;durP2;ratioP2;P2;SDS_P1;SDS_P2;PMS_P1;PMS_P2;Temp;Humidity;BMP_temperature;BMP_pressure;BME280_temperature;BME280_humidity;BME280_pressure;Samples;Min_cycle;Max_cycle;Signal;HPM_P1;HPM_P2
2022/10/17 00:01:46;;;;;;;15.30;11.87;;;;;;;;;;5055270;28;20272;-70
2022/10/17 00:04:12;;;;;;;13.80;11.03;;;;;;;;;;5055178;28;20708;-70
2022/10/17 00:06:39;;;;;;;18.37;11.83;;;;;;;;;;5073342;28;20174;-71
2022/10/17 00:09:05;;;;;;;15.17;12.60;;;;;;;;;;5073123;28;20272;-71
2022/10/17 00:11:31;;;;;;;15.03;11.83;;;;;;;;;;5055074;28;20674;-71
2022/10/17 00:13:57;;;;;;;14.83;11.60;;;;;;;;;;5072971;28;20543;-70
2022/10/17 00:16:27;;;;;;;15.77;12.30;;;;;;;;;;5072961;28;20182;-70
2022/10/17 00:18:53;;;;;;;15.50;12.57;;;;;;;;;;5073051;28;20565;-72
2022/10/17 00:21:20;;;;;;;13.73;12.23;;;;;;;;;;5073277;28;20178;-71
2022/10/17 00:23:46;;;;;;;15.13;12.83;;;;;;;;;;5055092;28;20654;-71
2022/10/17 00:26:13;;;;;;;18.23;12.83;;;;;;;;;;5055014;28;20781;-71
2022/10/17 00:28:39;;;;;;;15.00;13.13;;;;;;;;;;5073462;28;20543;-71
2022/10/17 00:31:06;;;;;;;18.17;13.30;;;;;;;;;;5054901;28;20296;-72
2022/10/17 00:33:33;;;;;;;15.97;13.20;;;;;;;;;;5073016;28;20252;-71
2022/10/17 00:36:12;;;;;;;17.27;13.60;;;;;;;;;;5072665;28;20293;-70
2022/10/17 00:38:38;;;;;;;14.90;13.23;;;;;;;;;;5055068;28;20173;-69
2022/10/17 00:41:05;;;;;;;21.77;14.30;;;;;;;;;;5073045;28;20255;-71
2022/10/17 00:43:48;;;;;;;18.53;14.40;;;;;;;;;;5072880;28;20182;-70
2022/10/17 00:46:14;;;;;;;18.50;13.50;;;;;;;;;;5054713;28;20198;-70
2022/10/17 00:48:40;;;;;;;17.03;13.23;;;;;;;;;;5072742;28;20177;-70
2022/10/17 00:51:06;;;;;;;16.07;14.33;;;;;;;;;;5072747;28;20217;-70
2022/10/17 00:53:32;;;;;;;20.07;13.70;;;;;;;;;;5072687;28;20189;-71
2022/10/17 00:55:58;;;;;;;14.90;13.23;;;;;;;;;;5054759;28;20570;-71
2022/10/17 00:58:24;;;;;;;19.53;13.10;;;;;;;;;;5057586;28;20641;-72
2022/10/17 01:00:50;;;;;;;17.47;13.23;;;;;;;;;;5076477;28;20178;-70
2022/10/17 01:03:16;;;;;;;15.73;13.40;;;;;;;;;;5076306;28;20196;-73
2022/10/17 01:05:42;;;;;;;16.67;13.00;;;;;;;;;;5076081;28;20201;-72
2022/10/17 01:08:08;;;;;;;17.10;13.43;;;;;;;;;;5076600;28;20204;-71
2022/10/17 01:10:40;;;;;;;17.10;13.60;;;;;;;;;;5058240;28;20659;-71
2022/10/17 01:13:26;;;;;;;15.97;12.93;;;;;;;;;;5076531;28;20166;-71
2022/10/17 01:15:58;;;;;;;18.23;12.77;;;;;;;;;;5057949;28;20244;-70
2022/10/17 01:18:35;;;;;;;15.73;13.57;;;;;;;;;;5059378;28;20176;-70
2022/10/17 01:21:01;;;;;;;14.77;12.97;;;;;;;;;;5076498;28;20162;-71
2022/10/17 01:23:30;;;;;;;16.63;12.77;;;;;;;;;;5058131;28;20645;-72
2022/10/17 01:26:01;;;;;;;16.10;13.40;;;;;;;;;;5076272;28;20216;-71
2022/10/17 01:28:27;;;;;;;16.67;12.33;;;;;;;;;;5075966;28;20626;-72
2022/10/17 01:30:59;;;;;;;16.80;12.27;;;;;;;;;;5076145;28;20330;-70
2022/10/17 01:33:37;;;;;;;16.60;12.03;;;;;;;;;;5057717;28;20178;-72
2022/10/17 01:36:09;;;;;;;17.90;12.47;;;;;;;;;;5075607;28;20232;-69
2022/10/17 01:38:41;;;;;;;18.67;12.43;;;;;;;;;;5076323;28;20197;-71
2022/10/17 01:41:16;;;;;;;16.37;11.97;;;;;;;;;;5075651;28;20162;-71
2022/10/17 01:43:54;;;;;;;13.37;11.97;;;;;;;;;;5075613;28;20203;-71
2022/10/17 01:46:32;;;;;;;17.93;11.70;;;;;;;;;;5058404;28;20185;-71
2022/10/17 01:48:59;;;;;;;16.37;10.97;;;;;;;;;;5076554;28;20196;-71
2022/10/17 01:51:32;;;;;;;17.60;11.23;;;;;;;;;;5077012;28;20285;-70
2022/10/17 01:54:10;;;;;;;19.10;11.93;;;;;;;;;;5076597;28;20178;-70
2022/10/17 01:56:38;;;;;;;12.47;11.17;;;;;;;;;;5076115;28;20178;-70
2022/10/17 01:59:06;;;;;;;16.50;11.40;;;;;;;;;;5075378;28;20178;-70
2022/10/17 02:01:33;;;;;;;14.30;11.43;;;;;;;;;;5057072;28;20181;-71
2022/10/17 02:04:00;;;;;;;12.03;10.83;;;;;;;;;;5074822;28;20260;-70
2022/10/17 02:06:26;;;;;;;12.10;10.90;;;;;;;;;;5075510;28;20182;-71
2022/10/17 02:08:52;;;;;;;15.07;11.27;;;;;;;;;;5075182;28;20550;-70
2022/10/17 02:11:23;;;;;;;19.20;10.50;;;;;;;;;;5056827;28;20716;-70
2022/10/17 02:13:52;;;;;;;13.70;10.10;;;;;;;;;;5074834;28;20248;-71
2022/10/17 02:16:21;;;;;;;11.33;10.23;;;;;;;;;;5075084;28;20263;-72
2022/10/17 02:19:05;;;;;;;12.37;10.47;;;;;;;;;;5056734;28;20602;-71
2022/10/17 02:21:36;;;;;;;12.67;9.73;;;;;;;;;;5056804;28;20178;-71
2022/10/17 02:24:18;;;;;;;14.50;9.67;;;;;;;;;;5074719;28;20223;-71
2022/10/17 02:26:52;;;;;;;12.40;9.70;;;;;;;;;;5074760;28;20170;-70
2022/10/17 02:29:20;;;;;;;13.60;9.33;;;;;;;;;;5056499;28;20230;-73
2022/10/17 02:31:53;;;;;;;12.20;9.33;;;;;;;;;;5074337;28;20188;-71
2022/10/17 02:34:25;;;;;;;11.83;9.97;;;;;;;;;;5074325;28;20585;-71
2022/10/17 02:36:53;;;;;;;10.37;9.27;;;;;;;;;;5056369;28;20561;-71
2022/10/17 02:39:24;;;;;;;9.73;8.70;;;;;;;;;;5074311;28;20178;-72
2022/10/17 02:41:50;;;;;;;15.60;8.80;;;;;;;;;;5056340;28;20181;-71
2022/10/17 02:44:17;;;;;;;12.53;9.10;;;;;;;;;;5074318;28;20201;-71
2022/10/17 02:46:44;;;;;;;11.30;8.47;;;;;;;;;;5074214;28;20201;-71
2022/10/17 02:49:15;;;;;;;9.47;7.87;;;;;;;;;;5074187;28;20182;-71
2022/10/17 02:51:51;;;;;;;11.67;9.17;;;;;;;;;;5074346;28;20212;-70
2022/10/17 02:54:20;;;;;;;14.70;8.30;;;;;;;;;;5074105;28;20754;-70
2022/10/17 02:56:50;;;;;;;9.53;8.30;;;;;;;;;;5056034;28;20242;-70
2022/10/17 02:59:17;;;;;;;11.80;8.00;;;;;;;;;;5074436;28;20184;-70
2022/10/17 03:04:12;;;;;;;8.77;7.67;;;;;;;;;;5072979;28;20340;-66
2022/10/17 03:06:40;;;;;;;12.60;7.93;;;;;;;;;;5073824;28;20180;-65
2022/10/17 03:09:06;;;;;;;15.97;8.30;;;;;;;;;;5055890;28;20185;-65
2022/10/17 03:11:32;;;;;;;9.33;8.17;;;;;;;;;;5073902;28;20228;-65
2022/10/17 03:13:58;;;;;;;10.57;8.40;;;;;;;;;;5055619;28;20649;-65
2022/10/17 03:16:24;;;;;;;10.97;7.37;;;;;;;;;;5073746;28;20189;-65
2022/10/17 03:18:50;;;;;;;15.37;8.07;;;;;;;;;;5055601;28;20280;-64
2022/10/17 03:21:16;;;;;;;7.47;6.73;;;;;;;;;;5073178;28;20257;-65
2022/10/17 03:23:42;;;;;;;10.47;7.50;;;;;;;;;;5073492;28;20228;-65
2022/10/17 03:26:08;;;;;;;11.97;7.30;;;;;;;;;;5073376;28;20185;-65
2022/10/17 03:28:34;;;;;;;8.53;7.47;;;;;;;;;;5055387;28;20251;-65
2022/10/17 03:31:06;;;;;;;8.23;7.43;;;;;;;;;;5055396;28;20205;-64
2022/10/17 03:33:32;;;;;;;10.43;7.60;;;;;;;;;;5073458;28;20570;-66
2022/10/17 03:35:58;;;;;;;14.60;7.40;;;;;;;;;;5073521;28;20177;-65
2022/10/17 03:38:24;;;;;;;9.83;7.53;;;;;;;;;;5073906;28;20170;-66
2022/10/17 03:40:56;;;;;;;9.80;7.17;;;;;;;;;;5073330;28;20670;-66
2022/10/17 03:43:22;;;;;;;8.67;6.90;;;;;;;;;;5073337;28;20262;-66
2022/10/17 03:45:48;;;;;;;9.57;6.60;;;;;;;;;;5073789;28;20693;-65
2022/10/17 03:48:14;;;;;;;8.20;6.70;;;;;;;;;;5073544;28;20307;-65
2022/10/17 03:50:39;;;;;;;11.60;6.80;;;;;;;;;;5073643;28;20696;-65
2022/10/17 03:53:05;;;;;;;7.70;6.97;;;;;;;;;;5055387;28;20695;-66
2022/10/17 03:55:31;;;;;;;11.60;7.27;;;;;;;;;;5055615;28;20174;-66
2022/10/17 03:57:57;;;;;;;7.90;7.00;;;;;;;;;;5073479;28;20631;-65
2022/10/17 04:00:23;;;;;;;8.33;6.73;;;;;;;;;;5073219;28;20219;-66
2022/10/17 04:02:49;;;;;;;10.03;6.90;;;;;;;;;;5055202;28;20311;-65
2022/10/17 04:05:15;;;;;;;10.47;7.00;;;;;;;;;;5073258;28;20185;-67
2022/10/17 04:07:41;;;;;;;11.83;7.13;;;;;;;;;;5055044;28;20186;-66
2022/10/17 04:10:07;;;;;;;14.77;6.67;;;;;;;;;;5054908;28;20213;-65
2022/10/17 04:12:33;;;;;;;12.03;7.30;;;;;;;;;;5072885;28;20193;-66
2022/10/17 04:14:59;;;;;;;12.43;7.27;;;;;;;;;;5073242;28;20170;-65
2022/10/17 04:17:25;;;;;;;10.67;7.77;;;;;;;;;;5073079;28;20201;-65
2022/10/17 04:19:51;;;;;;;10.60;7.80;;;;;;;;;;5055071;28;20182;-65
2022/10/17 04:22:17;;;;;;;8.33;6.53;;;;;;;;;;5072930;28;20201;-66
2022/10/17 04:24:43;;;;;;;8.20;7.33;;;;;;;;;;5073312;28;20186;-66
2022/10/17 04:27:09;;;;;;;7.80;6.30;;;;;;;;;;5073129;28;20631;-65
2022/10/17 04:29:35;;;;;;;7.93;6.10;;;;;;;;;;5054953;28;20178;-66
2022/10/17 04:32:01;;;;;;;11.47;7.13;;;;;;;;;;5073418;28;20210;-66
2022/10/17 04:34:27;;;;;;;12.13;7.57;;;;;;;;;;5058740;28;20275;-67
2022/10/17 04:36:53;;;;;;;9.33;8.17;;;;;;;;;;5058674;28;20742;-66
2022/10/17 04:39:19;;;;;;;10.37;8.63;;;;;;;;;;5058675;28;20228;-65
2022/10/17 04:41:45;;;;;;;11.33;7.07;;;;;;;;;;5058576;28;20656;-65
2022/10/17 04:44:11;;;;;;;8.80;7.20;;;;;;;;;;5058533;28;20182;-66
2022/10/17 04:46:37;;;;;;;10.00;6.83;;;;;;;;;;5076904;28;20235;-66
2022/10/17 04:49:03;;;;;;;8.63;6.53;;;;;;;;;;5076590;28;20193;-66
2022/10/17 04:51:29;;;;;;;12.00;6.90;;;;;;;;;;5076592;28;20280;-66
2022/10/17 04:53:55;;;;;;;11.13;6.77;;;;;;;;;;5076390;28;20281;-65
2022/10/17 04:56:22;;;;;;;9.10;6.20;;;;;;;;;;5076341;28;20209;-67
2022/10/17 04:58:48;;;;;;;10.00;7.07;;;;;;;;;;5076246;28;20256;-66
2022/10/17 05:01:16;;;;;;;11.13;6.40;;;;;;;;;;5076278;28;20218;-67
2022/10/17 05:03:42;;;;;;;10.83;6.80;;;;;;;;;;5075830;28;20217;-66
2022/10/17 05:06:15;;;;;;;12.73;6.60;;;;;;;;;;5058118;28;20656;-66
2022/10/17 05:08:41;;;;;;;8.57;6.10;;;;;;;;;;5075769;28;20265;-66
2022/10/17 05:11:18;;;;;;;8.23;7.00;;;;;;;;;;5075618;28;20197;-66
2022/10/17 05:13:44;;;;;;;9.80;6.30;;;;;;;;;;5057832;28;20654;-66
2022/10/17 05:16:10;;;;;;;9.27;6.10;;;;;;;;;;5075566;28;20181;-66
2022/10/17 05:18:36;;;;;;;9.67;5.77;;;;;;;;;;5075713;28;20186;-64
2022/10/17 05:21:05;;;;;;;6.77;5.57;;;;;;;;;;5075735;28;20634;-66
2022/10/17 05:23:31;;;;;;;7.63;6.20;;;;;;;;;;5075905;28;20220;-66
2022/10/17 05:25:57;;;;;;;7.93;5.67;;;;;;;;;;5075789;28;20263;-66
2022/10/17 05:28:23;;;;;;;11.57;5.63;;;;;;;;;;5076251;28;20625;-66
2022/10/17 05:30:49;;;;;;;9.50;5.93;;;;;;;;;;5057522;28;20263;-65
2022/10/17 05:33:15;;;;;;;9.23;6.07;;;;;;;;;;5057650;28;20204;-67
2022/10/17 05:35:41;;;;;;;9.47;6.50;;;;;;;;;;5075531;28;20535;-68
2022/10/17 05:38:07;;;;;;;9.00;6.13;;;;;;;;;;5075667;28;20231;-66
2022/10/17 05:40:34;;;;;;;7.53;5.50;;;;;;;;;;5075446;28;20287;-66
2022/10/17 05:43:00;;;;;;;8.07;5.80;;;;;;;;;;5075118;28;20208;-67
2022/10/17 05:45:26;;;;;;;9.17;6.37;;;;;;;;;;5057336;28;20187;-66
2022/10/17 05:47:51;;;;;;;9.93;5.77;;;;;;;;;;5057421;28;20625;-66
2022/10/17 05:50:20;;;;;;;9.70;6.17;;;;;;;;;;5075242;28;20289;-66
2022/10/17 05:52:46;;;;;;;7.50;6.07;;;;;;;;;;5075620;28;20194;-66
2022/10/17 05:55:12;;;;;;;8.03;5.80;;;;;;;;;;5075457;28;20235;-66
2022/10/17 05:57:38;;;;;;;11.57;5.90;;;;;;;;;;5075332;28;20652;-66
2022/10/17 06:00:05;;;;;;;8.33;6.20;;;;;;;;;;5075270;28;20178;-66
2022/10/17 06:02:31;;;;;;;7.90;5.77;;;;;;;;;;5074891;28;20218;-66
2022/10/17 06:04:57;;;;;;;8.23;5.80;;;;;;;;;;5075145;28;20235;-68
2022/10/17 06:07:22;;;;;;;6.83;5.57;;;;;;;;;;5075143;28;20232;-67
2022/10/17 06:09:49;;;;;;;7.87;6.00;;;;;;;;;;5075185;28;20205;-66
2022/10/17 06:12:15;;;;;;;12.83;5.93;;;;;;;;;;5056987;28;20221;-68
2022/10/17 06:14:41;;;;;;;10.53;6.00;;;;;;;;;;5075394;28;20170;-67
2022/10/17 06:17:07;;;;;;;9.60;6.13;;;;;;;;;;5074881;28;20231;-67
2022/10/17 06:19:32;;;;;;;8.37;6.20;;;;;;;;;;5074777;28;20188;-66
2022/10/17 06:21:58;;;;;;;9.60;5.70;;;;;;;;;;5074923;28;20166;-66
2022/10/17 06:24:24;;;;;;;7.23;6.33;;;;;;;;;;5056886;28;20178;-66
2022/10/17 06:26:50;;;;;;;9.47;6.07;;;;;;;;;;5074721;28;20216;-66
2022/10/17 06:29:16;;;;;;;11.10;6.50;;;;;;;;;;5074535;28;20177;-63
2022/10/17 06:31:42;;;;;;;12.73;6.20;;;;;;;;;;5074581;28;20577;-66
2022/10/17 06:34:08;;;;;;;10.63;5.87;;;;;;;;;;5056738;28;20193;-65
2022/10/17 06:36:34;;;;;;;14.60;6.00;;;;;;;;;;5056960;28;20222;-66
2022/10/17 06:39:01;;;;;;;8.13;5.93;;;;;;;;;;5074600;28;20274;-66
2022/10/17 06:41:27;;;;;;;12.47;6.23;;;;;;;;;;5074360;28;20283;-66
2022/10/17 06:43:53;;;;;;;6.37;5.77;;;;;;;;;;5074193;28;20603;-66
2022/10/17 06:46:19;;;;;;;7.57;5.30;;;;;;;;;;5074066;28;20177;-66
2022/10/17 06:48:45;;;;;;;8.07;5.73;;;;;;;;;;5074403;28;20544;-66
2022/10/17 06:51:11;;;;;;;9.40;5.97;;;;;;;;;;5073959;28;20202;-66
2022/10/17 06:53:38;;;;;;;6.33;5.47;;;;;;;;;;5056132;28;20202;-66
2022/10/17 06:56:04;;;;;;;9.90;5.13;;;;;;;;;;5055531;28;20264;-67
2022/10/17 06:58:31;;;;;;;11.73;5.60;;;;;;;;;;5055998;28;20620;-67
2022/10/17 07:01:00;;;;;;;13.50;5.60;;;;;;;;;;5074140;28;20177;-64
2022/10/17 07:03:26;;;;;;;6.27;5.23;;;;;;;;;;5073712;28;20221;-67
2022/10/17 07:05:53;;;;;;;13.97;5.37;;;;;;;;;;5056117;28;20265;-66
2022/10/17 07:08:19;;;;;;;9.83;5.60;;;;;;;;;;5074434;28;20227;-66
2022/10/17 07:10:45;;;;;;;7.50;5.50;;;;;;;;;;5073695;28;20209;-65
2022/10/17 07:13:11;;;;;;;7.90;5.37;;;;;;;;;;5055828;28;20301;-68
2022/10/17 07:15:37;;;;;;;8.50;5.50;;;;;;;;;;5073929;28;20181;-66
2022/10/17 07:18:03;;;;;;;6.83;5.63;;;;;;;;;;5073697;28;20182;-66
2022/10/17 07:20:29;;;;;;;8.60;5.23;;;;;;;;;;5074009;28;20174;-67
2022/10/17 07:22:55;;;;;;;9.50;5.70;;;;;;;;;;5073744;28;20200;-67
2022/10/17 07:25:21;;;;;;;11.23;5.43;;;;;;;;;;5055690;28;20185;-66
2022/10/17 07:27:51;;;;;;;9.47;6.03;;;;;;;;;;5073692;28;20181;-66
2022/10/17 07:30:17;;;;;;;8.97;5.67;;;;;;;;;;5073449;28;20205;-67
2022/10/17 07:32:43;;;;;;;8.97;5.83;;;;;;;;;;5073296;28;20197;-66
2022/10/17 07:35:09;;;;;;;8.07;5.40;;;;;;;;;;5073302;28;20178;-66
2022/10/17 07:37:36;;;;;;;8.33;6.17;;;;;;;;;;5073403;28;20174;-65
2022/10/17 07:40:01;;;;;;;9.30;5.60;;;;;;;;;;5073673;28;20189;-66
2022/10/17 07:42:27;;;;;;;8.50;5.13;;;;;;;;;;5073245;28;20567;-65
2022/10/17 07:44:54;;;;;;;7.10;4.83;;;;;;;;;;5073089;28;20178;-66
2022/10/17 07:47:20;;;;;;;8.00;5.20;;;;;;;;;;5073294;28;20177;-66
2022/10/17 07:49:46;;;;;;;7.00;5.13;;;;;;;;;;5073278;28;20185;-66
2022/10/17 07:52:13;;;;;;;8.70;4.70;;;;;;;;;;5073118;28;20205;-66
2022/10/17 07:54:39;;;;;;;11.33;4.70;;;;;;;;;;5073068;28;20173;-66
2022/10/17 07:57:05;;;;;;;10.33;4.80;;;;;;;;;;5055353;28;20177;-66
2022/10/17 07:59:32;;;;;;;11.07;4.60;;;;;;;;;;5055159;28;20182;-66
2022/10/17 08:01:58;;;;;;;7.60;4.83;;;;;;;;;;5072810;28;20181;-66
2022/10/17 08:04:25;;;;;;;5.00;4.50;;;;;;;;;;5072975;28;20181;-65
2022/10/17 08:06:51;;;;;;;8.47;4.60;;;;;;;;;;5074923;28;20661;-66
2022/10/17 08:09:17;;;;;;;7.33;4.80;;;;;;;;;;5077052;28;20680;-66
2022/10/17 08:11:43;;;;;;;10.90;4.70;;;;;;;;;;5077082;28;20225;-67
2022/10/17 08:14:10;;;;;;;7.63;4.50;;;;;;;;;;5058871;28;20620;-66
2022/10/17 08:16:36;;;;;;;7.00;4.97;;;;;;;;;;5077104;28;20178;-66
2022/10/17 08:19:02;;;;;;;4.80;4.00;;;;;;;;;;5076812;28;20169;-65
2022/10/17 08:21:28;;;;;;;8.47;4.67;;;;;;;;;;5076955;28;20699;-66
2022/10/17 08:23:54;;;;;;;9.27;4.80;;;;;;;;;;5058652;28;20201;-66
2022/10/17 08:26:20;;;;;;;8.47;4.40;;;;;;;;;;5076742;28;20181;-66
2022/10/17 08:28:46;;;;;;;9.93;4.47;;;;;;;;;;5076867;28;20178;-65
2022/10/17 08:31:14;;;;;;;8.33;4.67;;;;;;;;;;5076970;28;20205;-66
2022/10/17 08:33:40;;;;;;;11.97;4.30;;;;;;;;;;5076775;28;20198;-66
2022/10/17 08:36:07;;;;;;;6.73;4.40;;;;;;;;;;5076488;28;20186;-66
2022/10/17 08:38:34;;;;;;;7.50;4.20;;;;;;;;;;5076559;28;20299;-66
2022/10/17 08:41:02;;;;;;;6.37;4.37;;;;;;;;;;5076760;28;20181;-66
2022/10/17 08:43:33;;;;;;;12.80;4.80;;;;;;;;;;5076743;28;20687;-66
2022/10/17 08:46:03;;;;;;;6.60;4.60;;;;;;;;;;5077066;28;20640;-66
2022/10/17 08:48:31;;;;;;;7.33;4.20;;;;;;;;;;5076439;28;20173;-66
2022/10/17 08:50:58;;;;;;;7.23;4.80;;;;;;;;;;5076253;28;20229;-66
2022/10/17 08:54:03;;;;;;;7.13;4.80;;;;;;;;;;5076303;28;20254;-66
2022/10/17 08:56:42;;;;;;;8.50;5.90;;;;;;;;;;5034269;28;20657;-66
2022/10/17 08:59:15;;;;;;;8.77;5.63;;;;;;;;;;5034181;28;20245;-65
2022/10/17 09:01:47;;;;;;;10.47;4.90;;;;;;;;;;5059612;28;20648;-66
2022/10/17 09:04:32;;;;;;;7.57;5.10;;;;;;;;;;5058185;28;20703;-66
2022/10/17 09:07:13;;;;;;;6.93;4.73;;;;;;;;;;5076160;28;20252;-67
2022/10/17 09:09:41;;;;;;;7.90;5.30;;;;;;;;;;5075885;28;20185;-66
2022/10/17 09:12:17;;;;;;;9.40;4.73;;;;;;;;;;5057900;28;20284;-65
2022/10/17 09:14:45;;;;;;;7.97;5.23;;;;;;;;;;5076033;28;20176;-66
2022/10/17 09:17:24;;;;;;;9.17;5.03;;;;;;;;;;5075756;28;20201;-66
2022/10/17 09:19:59;;;;;;;8.17;5.33;;;;;;;;;;5075457;28;20165;-66
2022/10/17 09:22:27;;;;;;;8.03;5.00;;;;;;;;;;5075967;28;20200;-63
2022/10/17 09:25:02;;;;;;;11.73;4.90;;;;;;;;;;5057584;28;20308;-66
2022/10/17 09:27:42;;;;;;;11.73;5.13;;;;;;;;;;5138651;22;20224;-70
2022/10/17 09:30:14;;;;;;;8.43;4.90;;;;;;;;;;5116344;28;20200;-71
2022/10/17 09:32:41;;;;;;;12.13;5.23;;;;;;;;;;5116315;28;20648;-70
2022/10/17 09:35:11;;;;;;;9.27;5.37;;;;;;;;;;5116338;28;20168;-70
2022/10/17 09:37:37;;;;;;;14.60;5.97;;;;;;;;;;5116206;28;20193;-70
2022/10/17 09:40:05;;;;;;;9.77;5.87;;;;;;;;;;5116158;28;20176;-70
2022/10/17 09:42:31;;;;;;;7.87;5.33;;;;;;;;;;5116340;28;20198;-70
2022/10/17 09:45:00;;;;;;;11.53;5.83;;;;;;;;;;5114728;28;20184;-70
2022/10/17 09:47:52;;;;;;;11.73;6.13;;;;;;;;;;5115972;28;20204;-70
2022/10/17 09:50:32;;;;;;;13.67;6.37;;;;;;;;;;5092298;28;20234;-70
2022/10/17 09:53:24;;;;;;;8.93;6.30;;;;;;;;;;5116163;28;20243;-70
2022/10/17 09:55:55;;;;;;;14.53;7.17;;;;;;;;;;5112957;28;20189;-69
2022/10/17 09:58:22;;;;;;;11.17;5.97;;;;;;;;;;5114525;28;20173;-69
2022/10/17 10:00:48;;;;;;;11.27;9.30;;;;;;;;;;5115706;28;20181;-69
2022/10/17 10:03:16;;;;;;;11.17;6.93;;;;;;;;;;5115857;28;20168;-69
2022/10/17 10:05:57;;;;;;;9.10;5.13;;;;;;;;;;5115780;28;20200;-71
2022/10/17 10:08:25;;;;;;;6.47;4.97;;;;;;;;;;5114282;28;20172;-71
2022/10/17 10:10:57;;;;;;;14.13;5.07;;;;;;;;;;5115516;28;20235;-71
2022/10/17 10:13:25;;;;;;;10.87;5.07;;;;;;;;;;5115698;28;20153;-71
2022/10/17 10:15:51;;;;;;;7.20;4.60;;;;;;;;;;5116143;28;20177;-71
2022/10/17 10:18:26;;;;;;;7.67;4.87;;;;;;;;;;5115984;28;20180;-70
2022/10/17 10:21:03;;;;;;;7.50;4.40;;;;;;;;;;5115864;28;20547;-70
2022/10/17 10:23:29;;;;;;;9.00;5.43;;;;;;;;;;5116084;28;20168;-70
2022/10/17 10:25:58;;;;;;;11.73;4.83;;;;;;;;;;5115644;28;20658;-69
2022/10/17 10:28:26;;;;;;;7.10;4.57;;;;;;;;;;5115557;28;20217;-70
2022/10/17 10:30:52;;;;;;;10.73;4.70;;;;;;;;;;5114335;28;20215;-70
2022/10/17 10:33:19;;;;;;;9.20;4.73;;;;;;;;;;5115135;28;20181;-70
2022/10/17 10:35:51;;;;;;;5.83;4.50;;;;;;;;;;5114955;28;20176;-70
2022/10/17 10:38:17;;;;;;;8.27;5.00;;;;;;;;;;5115590;28;20156;-70
2022/10/17 10:40:54;;;;;;;9.80;5.17;;;;;;;;;;5114962;28;20177;-70
2022/10/17 10:43:22;;;;;;;10.03;4.80;;;;;;;;;;5114967;28;20176;-70
2022/10/17 10:45:48;;;;;;;9.30;4.57;;;;;;;;;;5115507;28;20255;-70
2022/10/17 10:48:22;;;;;;;5.63;4.30;;;;;;;;;;5114836;28;20184;-70
2022/10/17 10:51:01;;;;;;;14.10;5.10;;;;;;;;;;5113246;28;20248;-70
2022/10/17 10:53:46;;;;;;;5.30;4.63;;;;;;;;;;5114790;28;20168;-70
2022/10/17 10:56:23;;;;;;;8.20;5.37;;;;;;;;;;5114509;28;20192;-70
2022/10/17 10:58:53;;;;;;;7.83;4.90;;;;;;;;;;5114574;28;20172;-70
2022/10/17 11:01:23;;;;;;;10.63;5.40;;;;;;;;;;5115836;28;20309;-72
2022/10/17 11:04:10;;;;;;;9.60;4.50;;;;;;;;;;5114386;28;20173;-70
2022/10/17 11:06:37;;;;;;;13.77;5.50;;;;;;;;;;5114384;28;20192;-70
2022/10/17 11:09:09;;;;;;;10.97;6.07;;;;;;;;;;5114913;28;20179;-69
2022/10/17 11:11:39;;;;;;;9.87;6.13;;;;;;;;;;5114514;28;20237;-69
2022/10/17 11:14:23;;;;;;;10.77;6.70;;;;;;;;;;5114321;28;20172;-69
2022/10/17 11:16:55;;;;;;;9.70;6.17;;;;;;;;;;5112932;28;20196;-69
2022/10/17 11:19:42;;;;;;;12.90;7.07;;;;;;;;;;5113058;28;20226;-69
2022/10/17 11:22:16;;;;;;;9.57;6.50;;;;;;;;;;5114708;28;20181;-69
2022/10/17 11:24:42;;;;;;;9.70;7.03;;;;;;;;;;5114294;28;20177;-69
2022/10/17 11:27:08;;;;;;;11.80;7.50;;;;;;;;;;5112803;28;20269;-70
2022/10/17 11:29:35;;;;;;;8.20;6.80;;;;;;;;;;5114577;28;20644;-70
2022/10/17 11:32:06;;;;;;;16.73;8.20;;;;;;;;;;5114053;28;20219;-71
2022/10/17 11:34:35;;;;;;;14.93;7.83;;;;;;;;;;5112866;28;20176;-71
2022/10/17 11:37:04;;;;;;;13.17;8.07;;;;;;;;;;5114791;28;20219;-72
2022/10/17 11:39:50;;;;;;;15.27;8.37;;;;;;;;;;5113161;28;20180;-70
2022/10/17 11:42:20;;;;;;;14.50;8.40;;;;;;;;;;5112231;28;20276;-70
2022/10/17 11:44:47;;;;;;;15.10;8.20;;;;;;;;;;5114257;28;20180;-70
2022/10/17 11:47:53;;;;;;;16.27;7.53;;;;;;;;;;5112746;28;20196;-70
2022/10/17 11:50:21;;;;;;;9.83;7.40;;;;;;;;;;5051194;28;20236;-70
2022/10/17 11:52:54;;;;;;;9.63;7.90;;;;;;;;;;5034833;28;20232;-70
2022/10/17 11:55:21;;;;;;;11.97;8.40;;;;;;;;;;5085228;28;20644;-69
2022/10/17 11:57:47;;;;;;;13.90;8.40;;;;;;;;;;5112436;28;20246;-70
2022/10/17 12:00:13;;;;;;;12.87;8.60;;;;;;;;;;5114244;28;20648;-70
2022/10/17 12:02:42;;;;;;;10.53;7.83;;;;;;;;;;5114038;28;20207;-70
2022/10/17 12:05:18;;;;;;;15.57;8.90;;;;;;;;;;5114092;28;20229;-70
2022/10/17 12:07:44;;;;;;;14.10;7.90;;;;;;;;;;5112836;28;20210;-70
2022/10/17 12:10:29;;;;;;;17.20;7.77;;;;;;;;;;5114264;28;20203;-70
2022/10/17 12:12:55;;;;;;;14.77;7.67;;;;;;;;;;5114374;28;20176;-70
2022/10/17 12:15:25;;;;;;;12.63;6.90;;;;;;;;;;5113928;28;20177;-70
2022/10/17 12:18:01;;;;;;;8.77;6.27;;;;;;;;;;5113940;28;20209;-70
2022/10/17 12:20:29;;;;;;;9.23;5.97;;;;;;;;;;5114131;28;20237;-70
2022/10/17 12:22:55;;;;;;;7.33;6.17;;;;;;;;;;5113477;28;20230;-70
2022/10/17 12:25:28;;;;;;;8.47;6.87;;;;;;;;;;5114308;28;20169;-69
2022/10/17 12:28:06;;;;;;;7.80;6.07;;;;;;;;;;5112835;28;20295;-70
2022/10/17 12:30:33;;;;;;;11.53;6.50;;;;;;;;;;5115276;28;20200;-69
2022/10/17 12:33:22;;;;;;;10.60;6.13;;;;;;;;;;5116395;28;20180;-68
2022/10/17 12:36:08;;;;;;;11.47;6.80;;;;;;;;;;5123023;28;20237;-68
2022/10/17 12:38:34;;;;;;;10.83;6.60;;;;;;;;;;5126338;28;20183;-69
2022/10/17 12:41:00;;;;;;;12.77;7.33;;;;;;;;;;5115869;28;20640;-69
2022/10/17 12:43:29;;;;;;;7.93;6.03;;;;;;;;;;5116554;28;20188;-68
2022/10/17 12:45:59;;;;;;;9.27;6.30;;;;;;;;;;5115909;28;20195;-70
2022/10/17 12:48:34;;;;;;;11.20;6.40;;;;;;;;;;5115529;28;20180;-68
2022/10/17 12:51:01;;;;;;;8.63;6.23;;;;;;;;;;5115116;28;20200;-68
2022/10/17 12:53:47;;;;;;;11.30;6.43;;;;;;;;;;5113395;28;20591;-71
2022/10/17 12:56:18;;;;;;;9.83;5.90;;;;;;;;;;5107413;28;20212;-70
2022/10/17 12:58:48;;;;;;;10.27;5.40;;;;;;;;;;5121890;28;20184;-70
2022/10/17 13:01:33;;;;;;;10.50;6.13;;;;;;;;;;5118581;28;20181;-70
2022/10/17 13:04:04;;;;;;;10.93;5.73;;;;;;;;;;5117390;28;20259;-71
2022/10/17 13:06:31;;;;;;;12.13;6.47;;;;;;;;;;5118473;28;20565;-71
2022/10/17 13:09:01;;;;;;;10.27;5.90;;;;;;;;;;5118189;28;20226;-70
2022/10/17 13:11:29;;;;;;;9.30;5.80;;;;;;;;;;5117619;28;20290;-70
2022/10/17 13:13:56;;;;;;;15.90;6.20;;;;;;;;;;5117632;28;20667;-71
2022/10/17 13:16:29;;;;;;;8.77;5.33;;;;;;;;;;5117754;28;20203;-71
2022/10/17 13:18:55;;;;;;;11.30;5.20;;;;;;;;;;5116373;28;20229;-71
2022/10/17 13:21:21;;;;;;;10.73;5.40;;;;;;;;;;5116235;28;20180;-71
2022/10/17 13:23:50;;;;;;;8.63;4.90;;;;;;;;;;5117649;28;20177;-71
2022/10/17 13:26:19;;;;;;;9.27;5.50;;;;;;;;;;5115712;28;20223;-70
2022/10/17 13:28:44;;;;;;;5.80;5.10;;;;;;;;;;5117502;28;20164;-70
2022/10/17 13:31:26;;;;;;;6.83;4.80;;;;;;;;;;5119013;28;20204;-70
2022/10/17 13:33:55;;;;;;;9.57;5.17;;;;;;;;;;5133715;28;20630;-69
2022/10/17 13:36:21;;;;;;;9.67;5.10;;;;;;;;;;5133826;28;20275;-69
2022/10/17 13:38:47;;;;;;;12.67;5.40;;;;;;;;;;5125903;28;20183;-69
2022/10/17 13:41:14;;;;;;;9.93;4.80;;;;;;;;;;5123554;28;20176;-69
2022/10/17 13:43:40;;;;;;;16.00;4.80;;;;;;;;;;5123573;28;20629;-69
2022/10/17 13:46:06;;;;;;;11.80;5.00;;;;;;;;;;5123737;28;20206;-67
2022/10/17 13:48:34;;;;;;;7.63;4.37;;;;;;;;;;5122928;28;20180;-67
2022/10/17 13:51:01;;;;;;;10.40;5.00;;;;;;;;;;5120756;28;20227;-67
2022/10/17 13:53:32;;;;;;;7.77;4.13;;;;;;;;;;5124724;28;20169;-66
2022/10/17 13:55:58;;;;;;;7.70;4.53;;;;;;;;;;5124549;28;20180;-66
2022/10/17 13:58:25;;;;;;;14.63;5.07;;;;;;;;;;5123183;28;20207;-67
2022/10/17 14:00:51;;;;;;;9.53;4.57;;;;;;;;;;5123078;28;20181;-66
2022/10/17 14:03:19;;;;;;;12.83;4.73;;;;;;;;;;5121619;28;20173;-67
2022/10/17 14:06:02;;;;;;;6.80;4.13;;;;;;;;;;5122686;28;20177;-67
2022/10/17 14:08:28;;;;;;;8.57;4.70;;;;;;;;;;5120438;28;20172;-67
2022/10/17 14:10:54;;;;;;;7.97;4.80;;;;;;;;;;5121843;28;20211;-67
2022/10/17 14:13:22;;;;;;;9.43;4.17;;;;;;;;;;5123030;28;20677;-67
2022/10/17 14:15:48;;;;;;;13.20;4.60;;;;;;;;;;5121024;28;20187;-67
2022/10/17 14:18:19;;;;;;;8.00;4.00;;;;;;;;;;5120801;28;20225;-68
2022/10/17 14:20:49;;;;;;;7.50;4.13;;;;;;;;;;5120503;28;20215;-68
2022/10/17 14:23:27;;;;;;;8.37;4.47;;;;;;;;;;5125494;28;20180;-68
2022/10/17 14:26:03;;;;;;;7.17;4.30;;;;;;;;;;5123317;28;20267;-68
2022/10/17 14:28:29;;;;;;;8.83;3.90;;;;;;;;;;5120576;28;20176;-67
2022/10/17 14:31:08;;;;;;;6.30;3.90;;;;;;;;;;5120239;28;20204;-68
2022/10/17 14:33:35;;;;;;;5.17;4.07;;;;;;;;;;5121117;28;20318;-68
2022/10/17 14:36:02;;;;;;;5.83;4.20;;;;;;;;;;5120027;28;20181;-68
2022/10/17 14:38:29;;;;;;;7.97;4.63;;;;;;;;;;5120737;28;20180;-68
2022/10/17 14:40:59;;;;;;;9.43;4.50;;;;;;;;;;5120202;28;20234;-67
2022/10/17 14:43:26;;;;;;;9.30;4.03;;;;;;;;;;5121368;28;20183;-66
2022/10/17 14:45:52;;;;;;;8.40;4.30;;;;;;;;;;5122208;28;20203;-67
2022/10/17 14:48:21;;;;;;;7.23;4.30;;;;;;;;;;5122385;28;20180;-66